createdAt,value
2022-08-24T00:00:27.774Z,13.70
2022-08-24T00:02:56.307Z,13.80
2022-08-24T00:05:24.751Z,13.80
2022-08-24T00:07:53.098Z,13.70
2022-08-24T00:10:22.309Z,13.60
2022-08-24T00:12:52.466Z,13.60
2022-08-24T00:15:21.110Z,13.60
2022-08-24T00:17:49.789Z,13.50
2022-08-24T00:20:18.871Z,13.60
2022-08-24T00:22:47.226Z,13.80
2022-08-24T00:25:17.452Z,13.80
2022-08-24T00:27:45.837Z,13.80
2022-08-24T00:30:18.972Z,13.80
2022-08-24T00:32:49.489Z,13.80
2022-08-24T00:35:19.972Z,13.80
2022-08-24T00:37:50.359Z,13.80
2022-08-24T00:40:21.906Z,13.80
2022-08-24T00:42:53.178Z,13.80
2022-08-24T00:45:25.007Z,13.80
2022-08-24T00:47:57.395Z,13.80
2022-08-24T00:50:38.501Z,13.80
2022-08-24T00:53:18.497Z,13.80
2022-08-24T00:55:52.257Z,13.80
2022-08-24T00:58:25.520Z,13.80
2022-08-24T01:00:59.391Z,13.80
2022-08-24T01:05:27.387Z,13.80
2022-08-24T01:07:56.185Z,13.80
2022-08-24T01:10:27.330Z,13.80
2022-08-24T01:13:00.661Z,13.80
2022-08-24T01:15:30.653Z,13.90
2022-08-24T01:18:16.941Z,13.90
2022-08-24T01:20:50.495Z,13.90
2022-08-24T01:23:36.672Z,14.00
2022-08-24T01:26:06.432Z,14.00
2022-08-24T01:28:37.096Z,13.90
2022-08-24T01:31:05.754Z,13.90
2022-08-24T01:33:34.517Z,13.90
2022-08-24T01:36:06.356Z,13.80
2022-08-24T01:38:36.627Z,13.80
2022-08-24T01:41:05.804Z,13.80
2022-08-24T01:43:36.948Z,13.80
2022-08-24T01:46:06.555Z,13.80
2022-08-24T01:48:35.205Z,13.80
2022-08-24T01:51:03.698Z,13.80
2022-08-24T01:53:32.400Z,13.80
2022-08-24T01:56:02.267Z,13.80
2022-08-24T01:58:30.689Z,13.80
2022-08-24T02:00:59.331Z,13.90
2022-08-24T02:03:30.293Z,13.90
2022-08-24T02:05:59.062Z,13.80
2022-08-24T02:08:27.835Z,13.80
2022-08-24T02:10:57.044Z,13.80
2022-08-24T02:13:27.332Z,13.80
2022-08-24T02:15:55.769Z,13.80
2022-08-24T02:18:24.437Z,13.80
2022-08-24T02:20:53.436Z,13.70
2022-08-24T02:23:22.460Z,13.70
2022-08-24T02:25:52.273Z,13.70
2022-08-24T02:28:21.150Z,13.70
2022-08-24T02:30:51.323Z,13.80
2022-08-24T02:33:19.875Z,14.00
2022-08-24T02:35:48.455Z,14.10
2022-08-24T02:38:16.882Z,14.20
2022-08-24T02:40:45.457Z,14.30
2022-08-24T02:43:13.900Z,14.40
2022-08-24T02:45:47.162Z,14.30
2022-08-24T02:48:20.498Z,14.20
2022-08-24T02:50:51.363Z,14.00
2022-08-24T02:53:22.180Z,14.00
2022-08-24T02:55:50.748Z,13.90
2022-08-24T02:58:19.657Z,14.00
2022-08-24T03:00:49.506Z,13.90
2022-08-24T03:05:28.135Z,13.90
2022-08-24T03:07:57.572Z,13.90
2022-08-24T03:10:26.924Z,13.90
2022-08-24T03:12:58.769Z,14.00
2022-08-24T03:15:27.657Z,14.00
2022-08-24T03:17:56.237Z,13.90
2022-08-24T03:20:25.537Z,14.00
2022-08-24T03:22:58.387Z,14.20
2022-08-24T03:25:28.406Z,14.20
2022-08-24T03:27:56.940Z,14.10
2022-08-24T03:30:27.343Z,14.00
2022-08-24T03:32:56.620Z,13.90
2022-08-24T03:35:25.564Z,13.80
2022-08-24T03:37:55.588Z,13.80
2022-08-24T03:40:24.539Z,13.80
2022-08-24T03:42:53.719Z,13.90
2022-08-24T03:45:23.162Z,14.10
2022-08-24T03:47:52.416Z,14.20
2022-08-24T03:50:22.204Z,14.30
2022-08-24T03:52:50.614Z,14.20
2022-08-24T03:55:21.602Z,14.00
2022-08-24T03:57:50.114Z,14.00
2022-08-24T04:00:19.089Z,14.00
2022-08-24T04:02:47.645Z,13.90
2022-08-24T04:05:16.190Z,13.90
2022-08-24T04:07:44.494Z,14.00
2022-08-24T04:10:13.971Z,14.10
2022-08-24T04:12:43.944Z,14.10
2022-08-24T04:15:15.235Z,14.20
2022-08-24T04:17:43.506Z,14.20
2022-08-24T04:20:13.073Z,14.20
2022-08-24T04:22:41.720Z,14.30
2022-08-24T04:25:11.846Z,14.20
2022-08-24T04:27:43.450Z,14.20
2022-08-24T04:30:15.300Z,14.30
2022-08-24T04:32:43.861Z,14.30
2022-08-24T04:35:12.763Z,14.40
2022-08-24T04:37:41.613Z,14.50
2022-08-24T04:40:11.420Z,14.70
2022-08-24T04:42:39.879Z,14.80
2022-08-24T04:45:10.664Z,15.10
2022-08-24T04:47:40.353Z,15.20
2022-08-24T04:50:09.664Z,15.40
2022-08-24T04:52:38.226Z,15.40
2022-08-24T04:55:07.762Z,15.50
2022-08-24T04:57:36.341Z,15.60
2022-08-24T05:00:09.598Z,15.70
2022-08-24T05:05:28.000Z,15.80
2022-08-24T05:07:56.758Z,15.90
2022-08-24T05:10:25.987Z,16.00
2022-08-24T05:13:01.761Z,16.10
2022-08-24T05:15:30.165Z,16.20
2022-08-24T05:17:58.545Z,16.30
2022-08-24T05:20:28.382Z,16.40
2022-08-24T05:22:59.945Z,16.50
2022-08-24T05:25:30.890Z,16.70
2022-08-24T05:27:59.416Z,16.80
2022-08-24T05:30:28.111Z,17.00
2022-08-24T05:32:57.127Z,17.20
2022-08-24T05:35:25.895Z,17.30
2022-08-24T05:37:55.731Z,17.50
2022-08-24T05:40:25.725Z,17.40
2022-08-24T05:43:01.685Z,17.30
2022-08-24T05:45:31.988Z,17.40
2022-08-24T05:48:00.616Z,17.70
2022-08-24T05:50:29.170Z,17.80
2022-08-24T05:52:59.074Z,17.90
2022-08-24T05:55:27.566Z,18.10
2022-08-24T05:57:57.048Z,18.70
2022-08-24T06:00:25.805Z,19.70
2022-08-24T06:02:54.348Z,20.60
2022-08-24T06:05:22.933Z,21.80
2022-08-24T06:07:51.412Z,23.00
2022-08-24T06:10:36.470Z,23.30
2022-08-24T06:13:05.560Z,24.00
2022-08-24T06:15:35.125Z,24.50
2022-08-24T06:18:04.799Z,24.20
2022-08-24T06:20:48.403Z,24.10
2022-08-24T06:23:17.409Z,23.60
2022-08-24T06:26:04.936Z,24.00
2022-08-24T06:28:39.962Z,24.70
2022-08-24T06:31:08.612Z,25.60
2022-08-24T06:33:37.360Z,26.50
2022-08-24T06:36:06.485Z,26.80
2022-08-24T06:38:36.440Z,27.60
2022-08-24T06:41:07.237Z,28.50
2022-08-24T06:43:35.631Z,29.00
2022-08-24T06:46:05.207Z,29.30
2022-08-24T06:48:33.904Z,29.50
2022-08-24T06:51:02.766Z,29.80
2022-08-24T06:53:31.237Z,29.80
2022-08-24T06:56:00.516Z,30.00
2022-08-24T06:58:30.395Z,30.10
2022-08-24T07:01:08.491Z,30.00
2022-08-24T07:05:27.934Z,29.70
2022-08-24T07:07:56.410Z,29.50
2022-08-24T07:10:25.315Z,29.70
2022-08-24T07:12:57.675Z,30.00
2022-08-24T07:15:26.618Z,30.20
2022-08-24T07:17:54.892Z,30.00
2022-08-24T07:20:25.137Z,30.40
2022-08-24T07:22:55.707Z,30.40
2022-08-24T07:25:24.290Z,30.70
2022-08-24T07:27:53.916Z,30.50
2022-08-24T07:30:27.370Z,30.40
2022-08-24T07:32:56.870Z,30.90
2022-08-24T07:35:25.630Z,30.90
2022-08-24T07:37:56.559Z,30.80
2022-08-24T07:40:25.753Z,30.50
2022-08-24T07:42:56.718Z,30.30
2022-08-24T07:45:26.577Z,30.20
2022-08-24T07:47:56.544Z,29.80
2022-08-24T07:50:25.528Z,29.50
2022-08-24T07:52:55.352Z,29.40
2022-08-24T07:55:23.875Z,29.80
2022-08-24T07:57:52.417Z,30.30
2022-08-24T08:00:22.156Z,30.60
2022-08-24T08:02:50.750Z,31.10
2022-08-24T08:05:22.931Z,30.90
2022-08-24T08:07:52.394Z,30.90
2022-08-24T08:10:23.846Z,30.70
2022-08-24T08:12:52.320Z,29.80
2022-08-24T08:15:20.865Z,29.50
2022-08-24T08:17:55.798Z,30.20
2022-08-24T08:20:24.682Z,30.10
2022-08-24T08:23:13.522Z,29.60
2022-08-24T08:25:47.241Z,30.30
2022-08-24T08:28:25.221Z,31.20
2022-08-24T08:30:55.059Z,31.30
2022-08-24T08:36:05.985Z,30.00
2022-08-24T08:38:36.212Z,30.80
2022-08-24T08:41:44.083Z,31.00
2022-08-24T08:44:21.388Z,31.10
2022-08-24T08:47:12.988Z,31.10
2022-08-24T08:50:13.902Z,32.00
2022-08-24T08:53:31.397Z,32.70
2022-08-24T08:56:14.062Z,32.90
2022-08-24T08:59:04.418Z,32.10
2022-08-24T09:01:49.674Z,31.20
2022-08-24T09:06:13.043Z,31.30
2022-08-24T09:09:06.809Z,32.00
2022-08-24T09:11:51.976Z,32.60
2022-08-24T09:14:58.025Z,33.10
2022-08-24T09:17:55.748Z,32.50
2022-08-24T09:20:51.248Z,33.20
2022-08-24T09:23:35.356Z,33.50
2022-08-24T09:26:19.187Z,32.90
2022-08-24T09:29:03.625Z,32.40
2022-08-24T09:31:51.283Z,31.80
2022-08-24T09:34:37.436Z,32.60
2022-08-24T09:37:34.264Z,33.00
2022-08-24T09:40:28.383Z,33.40
2022-08-24T09:43:32.220Z,33.30
2022-08-24T09:46:57.990Z,32.80
2022-08-24T09:50:17.283Z,33.80
2022-08-24T09:53:47.802Z,33.10
2022-08-24T09:56:36.485Z,31.60
2022-08-24T09:59:54.855Z,30.40
2022-08-24T10:03:01.364Z,31.00
2022-08-24T10:05:52.629Z,31.00
2022-08-24T10:08:38.890Z,31.10
2022-08-24T10:11:23.211Z,31.40
2022-08-24T10:14:07.986Z,32.00
2022-08-24T10:16:49.400Z,32.60
2022-08-24T10:19:49.575Z,33.40
2022-08-24T10:22:36.342Z,33.30
2022-08-24T10:25:28.949Z,33.20
2022-08-24T10:28:17.203Z,33.10
2022-08-24T10:31:12.181Z,33.40
2022-08-24T10:34:03.432Z,32.90
2022-08-24T10:36:57.921Z,32.70
2022-08-24T10:40:01.957Z,32.10
2022-08-24T10:43:26.042Z,32.50
2022-08-24T10:46:50.034Z,32.60
2022-08-24T10:50:21.170Z,32.10
2022-08-24T10:53:24.051Z,30.60
2022-08-24T10:56:07.295Z,31.00
2022-08-24T10:59:15.704Z,31.50
2022-08-24T11:05:43.468Z,31.80
2022-08-24T11:08:22.932Z,31.90
2022-08-24T11:11:09.631Z,32.30
2022-08-24T11:13:51.844Z,32.40
2022-08-24T11:16:28.177Z,32.10
2022-08-24T11:19:00.710Z,30.80
2022-08-24T11:21:55.147Z,30.70
2022-08-24T11:24:44.996Z,30.80
2022-08-24T11:27:30.672Z,31.30
2022-08-24T11:30:08.116Z,31.60
2022-08-24T11:32:43.947Z,31.50
2022-08-24T11:35:24.855Z,31.60
2022-08-24T11:38:04.633Z,31.60
2022-08-24T11:40:41.387Z,31.60
2022-08-24T11:43:37.452Z,31.40
2022-08-24T11:46:26.908Z,31.00
2022-08-24T11:49:14.881Z,30.30
2022-08-24T11:52:02.216Z,29.90
2022-08-24T11:54:43.884Z,30.50
2022-08-24T11:57:23.185Z,31.20
2022-08-24T12:00:03.703Z,31.60
2022-08-24T12:02:50.414Z,31.80
2022-08-24T12:05:30.764Z,32.50
2022-08-24T12:08:15.711Z,32.30
2022-08-24T12:11:00.537Z,32.30
2022-08-24T12:13:45.404Z,32.50
2022-08-24T12:16:26.421Z,33.00
2022-08-24T12:19:04.256Z,32.90
2022-08-24T12:21:39.784Z,32.40
2022-08-24T12:24:16.588Z,32.10
2022-08-24T12:26:53.543Z,32.20
2022-08-24T12:29:31.956Z,31.90
2022-08-24T12:32:08.668Z,32.30
2022-08-24T12:35:08.238Z,31.80
2022-08-24T12:37:43.918Z,30.90
2022-08-24T12:40:25.250Z,30.20
2022-08-24T12:43:02.768Z,30.20
2022-08-24T12:45:54.044Z,30.30
2022-08-24T12:48:33.641Z,30.60
2022-08-24T12:51:24.118Z,30.60
2022-08-24T12:54:21.899Z,30.80
2022-08-24T12:57:25.320Z,30.40
2022-08-24T13:00:03.274Z,30.40
2022-08-24T13:05:42.208Z,31.80
2022-08-24T13:08:16.867Z,31.70
2022-08-24T13:11:01.436Z,31.60
2022-08-24T13:13:49.912Z,31.50
2022-08-24T13:16:51.439Z,31.20
2022-08-24T13:19:41.577Z,31.40
2022-08-24T13:22:51.160Z,31.40
2022-08-24T13:25:56.036Z,31.50
2022-08-24T13:28:44.355Z,32.00
2022-08-24T13:31:31.759Z,31.30
2022-08-24T13:34:39.387Z,31.60
2022-08-24T13:37:18.911Z,31.60
2022-08-24T13:40:27.932Z,31.40
2022-08-24T13:43:14.732Z,31.30
2022-08-24T13:45:52.885Z,31.80
2022-08-24T13:48:42.271Z,32.00
2022-08-24T13:51:31.650Z,32.00
2022-08-24T13:54:22.561Z,31.70
2022-08-24T13:57:35.719Z,32.40
2022-08-24T14:04:44.313Z,31.90
2022-08-24T14:07:33.994Z,31.80
2022-08-24T14:10:26.593Z,32.20
2022-08-24T14:13:26.462Z,32.20
2022-08-24T14:16:24.483Z,32.40
2022-08-24T14:19:11.942Z,32.50
2022-08-24T14:21:52.063Z,33.10
2022-08-24T14:24:32.573Z,33.50
2022-08-24T14:27:33.643Z,33.80
2022-08-24T14:30:54.512Z,33.90
2022-08-24T14:33:33.872Z,33.40
2022-08-24T14:36:21.608Z,32.90
2022-08-24T14:39:05.186Z,32.40
2022-08-24T14:42:02.352Z,31.70
2022-08-24T14:44:54.846Z,31.50
2022-08-24T14:47:47.428Z,31.60
2022-08-24T14:50:23.950Z,32.10
2022-08-24T14:53:27.161Z,32.70
2022-08-24T14:56:11.464Z,32.70
2022-08-24T14:58:53.119Z,32.40
2022-08-24T15:01:41.810Z,32.10
2022-08-24T15:05:41.031Z,32.00
2022-08-24T15:08:18.170Z,31.50
2022-08-24T15:10:56.711Z,31.90
2022-08-24T15:13:37.662Z,32.10
2022-08-24T15:16:53.749Z,32.60
2022-08-24T15:19:32.280Z,32.80
2022-08-24T15:22:12.879Z,32.70
2022-08-24T15:24:52.640Z,32.60
2022-08-24T15:27:41.958Z,32.70
2022-08-24T15:30:26.662Z,33.30
2022-08-24T15:33:11.321Z,33.50
2022-08-24T15:35:46.285Z,32.80
2022-08-24T15:38:26.933Z,32.90
2022-08-24T15:41:08.548Z,32.50
2022-08-24T15:43:45.153Z,33.00
2022-08-24T15:46:15.233Z,33.40
2022-08-24T15:48:48.205Z,33.20
2022-08-24T15:51:44.429Z,33.50
2022-08-24T15:54:32.264Z,33.20
2022-08-24T15:57:05.155Z,33.30
2022-08-24T15:59:48.589Z,33.80
2022-08-24T16:02:29.215Z,33.60
2022-08-24T16:05:17.673Z,33.60
2022-08-24T16:08:16.414Z,33.30
2022-08-24T16:10:50.606Z,32.70
2022-08-24T16:13:30.413Z,32.70
2022-08-24T16:16:05.312Z,32.80
2022-08-24T16:18:51.140Z,32.80
2022-08-24T16:21:34.440Z,32.60
2022-08-24T16:24:09.178Z,32.30
2022-08-24T16:30:23.582Z,32.00
2022-08-24T16:33:00.440Z,31.40
2022-08-24T16:35:31.238Z,31.40
2022-08-24T16:38:00.010Z,31.60
2022-08-24T16:40:36.891Z,31.30
2022-08-24T16:43:05.525Z,31.30
2022-08-24T16:45:36.105Z,31.20
2022-08-24T16:48:05.725Z,31.10
2022-08-24T16:50:34.911Z,30.60
2022-08-24T16:53:04.001Z,30.20
2022-08-24T16:55:33.078Z,29.90
2022-08-24T16:58:04.542Z,29.90
2022-08-24T17:00:35.205Z,30.20
2022-08-24T17:05:28.289Z,30.30
2022-08-24T17:07:59.379Z,30.00
2022-08-24T17:10:28.318Z,29.80
2022-08-24T17:12:56.943Z,29.60
2022-08-24T17:15:26.092Z,29.40
2022-08-24T17:18:03.380Z,29.40
2022-08-24T17:20:34.436Z,29.40
2022-08-24T17:23:03.278Z,29.30
2022-08-24T17:25:34.039Z,29.00
2022-08-24T17:28:04.551Z,29.10
2022-08-24T17:30:33.548Z,28.80
2022-08-24T17:33:02.574Z,28.40
2022-08-24T17:35:33.015Z,28.00
2022-08-24T17:38:02.052Z,27.70
2022-08-24T17:40:32.016Z,27.30
2022-08-24T17:43:00.768Z,27.20
2022-08-24T17:45:29.468Z,26.70
2022-08-24T17:48:00.934Z,26.40
2022-08-24T17:50:29.716Z,25.90
2022-08-24T17:53:04.504Z,25.50
2022-08-24T17:55:33.484Z,25.20
2022-08-24T17:58:03.571Z,25.00
2022-08-24T18:00:32.303Z,24.80
2022-08-24T18:03:01.050Z,24.50
2022-08-24T18:05:32.227Z,24.10
2022-08-24T18:08:04.308Z,23.70
2022-08-24T18:10:34.153Z,23.40
2022-08-24T18:13:05.239Z,23.20
2022-08-24T18:15:37.535Z,22.90
2022-08-24T18:18:10.662Z,22.70
2022-08-24T18:20:44.974Z,22.60
2022-08-24T18:23:21.410Z,22.50
2022-08-24T18:25:54.585Z,22.30
2022-08-24T18:28:24.404Z,22.20
2022-08-24T18:30:53.500Z,22.10
2022-08-24T18:33:22.259Z,22.00
2022-08-24T18:35:50.841Z,21.90
2022-08-24T18:38:21.068Z,21.70
2022-08-24T18:40:52.408Z,21.70
2022-08-24T18:43:24.992Z,21.60
2022-08-24T18:45:55.170Z,21.50
2022-08-24T18:48:25.506Z,21.50
2022-08-24T18:50:54.999Z,21.40
2022-08-24T18:53:27.778Z,21.30
2022-08-24T18:55:56.755Z,21.30
2022-08-24T18:58:25.746Z,21.20
2022-08-24T19:00:57.241Z,21.10
2022-08-24T19:05:27.196Z,21.00
2022-08-24T19:07:56.546Z,20.90
2022-08-24T19:10:30.558Z,20.80
2022-08-24T19:13:04.487Z,20.70
2022-08-24T19:15:39.725Z,20.60
2022-08-24T19:18:11.349Z,20.50
2022-08-24T19:20:48.350Z,20.50
2022-08-24T19:23:25.941Z,20.50
2022-08-24T19:25:55.745Z,20.40
2022-08-24T19:28:26.743Z,20.30
2022-08-24T19:30:57.943Z,20.30
2022-08-24T19:33:37.795Z,20.20
2022-08-24T19:36:08.593Z,20.20
2022-08-24T19:38:37.286Z,20.20
2022-08-24T19:41:12.520Z,20.10
2022-08-24T19:43:56.885Z,20.10
2022-08-24T19:46:26.815Z,20.00
2022-08-24T19:48:56.241Z,20.00
2022-08-24T19:51:27.948Z,20.00
2022-08-24T19:53:57.765Z,19.90
2022-08-24T19:56:26.594Z,19.80
2022-08-24T19:59:03.941Z,19.80
2022-08-24T20:01:35.704Z,19.80
2022-08-24T20:04:06.917Z,19.70
2022-08-24T20:06:38.945Z,19.70
2022-08-24T20:09:08.425Z,19.70
2022-08-24T20:11:39.371Z,19.60
2022-08-24T20:14:08.653Z,19.60
2022-08-24T20:16:42.329Z,19.60
2022-08-24T20:19:13.516Z,19.60
2022-08-24T20:21:43.619Z,19.50
2022-08-24T20:24:12.531Z,19.50
2022-08-24T20:26:45.059Z,19.40
2022-08-24T20:29:15.272Z,19.30
2022-08-24T20:31:45.628Z,19.30
2022-08-24T20:34:14.370Z,19.20
2022-08-24T20:36:50.986Z,19.20
2022-08-24T20:39:23.271Z,19.10
2022-08-24T20:41:53.081Z,19.00
2022-08-24T20:44:21.932Z,18.90
2022-08-24T20:46:52.037Z,18.90
2022-08-24T20:49:26.750Z,18.80
2022-08-24T20:51:56.921Z,18.70
2022-08-24T20:54:28.607Z,18.60
2022-08-24T20:56:57.518Z,18.60
2022-08-24T20:59:26.378Z,18.60
2022-08-24T21:05:27.683Z,18.60
2022-08-24T21:07:58.087Z,18.50
2022-08-24T21:10:28.631Z,18.40
2022-08-24T21:12:57.654Z,18.40
2022-08-24T21:15:26.228Z,18.30
2022-08-24T21:17:55.568Z,18.30
2022-08-24T21:20:27.945Z,18.30
2022-08-24T21:22:57.286Z,18.30
2022-08-24T21:25:27.324Z,18.30
2022-08-24T21:27:59.066Z,18.20
2022-08-24T21:30:31.881Z,18.10
2022-08-24T21:33:24.448Z,18.10
2022-08-24T21:35:55.037Z,18.00
2022-08-24T21:38:23.980Z,18.00
2022-08-24T21:40:54.449Z,17.90
2022-08-24T21:43:23.240Z,17.80
2022-08-24T21:45:53.096Z,17.90
2022-08-24T21:48:21.993Z,17.80
2022-08-24T21:50:51.413Z,17.80
2022-08-24T21:53:21.865Z,17.80
2022-08-24T21:55:57.466Z,17.80
2022-08-24T21:58:26.329Z,17.70
2022-08-24T22:00:59.008Z,17.60
2022-08-24T22:03:37.386Z,17.60
2022-08-24T22:06:10.346Z,17.50
2022-08-24T22:08:43.579Z,17.50
2022-08-24T22:11:15.155Z,17.40
2022-08-24T22:13:44.392Z,17.40
2022-08-24T22:16:14.169Z,17.40
2022-08-24T22:18:43.204Z,17.40
2022-08-24T22:21:16.511Z,17.40
2022-08-24T22:23:47.010Z,17.40
2022-08-24T22:26:16.052Z,17.40
2022-08-24T22:28:44.888Z,17.40
2022-08-24T22:31:21.100Z,17.40
2022-08-24T22:33:50.921Z,17.40
2022-08-24T22:36:20.599Z,17.40
2022-08-24T22:38:51.233Z,17.40
2022-08-24T22:41:21.952Z,17.40
2022-08-24T22:44:08.840Z,17.40
2022-08-24T22:46:39.431Z,17.40
2022-08-24T22:49:10.030Z,17.40
2022-08-24T22:51:40.839Z,17.40
2022-08-24T22:54:11.684Z,17.40
2022-08-24T22:56:44.599Z,17.40
2022-08-24T22:59:18.901Z,17.40
2022-08-24T23:01:51.079Z,17.40
2022-08-24T23:05:26.370Z,17.40
2022-08-24T23:07:55.190Z,17.40
2022-08-24T23:10:24.779Z,17.30
2022-08-24T23:12:53.406Z,17.30
2022-08-24T23:15:22.324Z,17.20
2022-08-24T23:17:51.098Z,17.20
2022-08-24T23:20:19.382Z,17.20
2022-08-24T23:22:50.987Z,17.10
2022-08-24T23:25:19.804Z,17.20
2022-08-24T23:27:50.131Z,17.20
2022-08-24T23:30:19.338Z,17.20
2022-08-24T23:32:48.687Z,17.20
2022-08-24T23:35:17.969Z,17.20
2022-08-24T23:37:46.870Z,17.20
2022-08-24T23:40:17.468Z,17.30
2022-08-24T23:42:46.581Z,17.30
2022-08-24T23:45:15.444Z,17.30
2022-08-24T23:47:44.229Z,17.40
2022-08-24T23:50:13.179Z,17.40
2022-08-24T23:52:42.550Z,17.50
2022-08-24T23:55:21.082Z,17.50
2022-08-24T23:57:52.880Z,17.60
